METAR Formatted Surface Weather Observation
Issued by NWS

Home | Current Version | Previous Version | Text Only | Print | Product List | Glossary On
Versions: 1 2 3 4 5 6 7 8 9 10 11 12 13 14 15 16 17
000
SAUS45 KBOU 210758
MTRABH
METAR KABH 210756Z AUTO 15008KT 10SM CLR 09/07 A3013 RMK AO2 SLP151
T00890067 $



USA.gov is the U.S. government's official web portal to all federal, state and local government web resources and services.